createdAt,value
2018-12-13T05:00:17.825Z,91.00
2018-12-13T05:02:40.467Z,90.80
2018-12-13T05:05:03.443Z,90.20
2018-12-13T05:07:26.087Z,88.70
2018-12-13T05:09:48.737Z,87.80
2018-12-13T05:12:11.308Z,87.70
2018-12-13T05:14:33.940Z,88.20
2018-12-13T06:00:17.265Z,88.40
2018-12-13T06:02:54.096Z,87.70
2018-12-13T06:05:16.787Z,86.00
2018-12-13T06:07:39.500Z,85.60
2018-12-13T06:10:02.365Z,85.30
2018-12-13T06:12:24.961Z,84.50
2018-12-13T06:14:47.604Z,84.10
2018-12-13T07:00:29.047Z,83.00
2018-12-13T07:02:51.651Z,83.10
2018-12-13T07:05:14.213Z,82.90
2018-12-13T07:07:36.817Z,83.00
2018-12-13T07:09:59.408Z,82.90
2018-12-13T07:12:21.989Z,83.10
2018-12-13T07:14:44.578Z,83.30
2018-12-13T08:00:24.678Z,81.70
2018-12-13T08:02:47.445Z,81.30
2018-12-13T08:05:10.365Z,80.60
2018-12-13T08:07:33.279Z,80.90
2018-12-13T08:09:56.000Z,80.00
2018-12-13T08:12:18.671Z,80.10
2018-12-13T08:14:41.587Z,80.20
2018-12-13T09:00:17.598Z,77.20
2018-12-13T09:02:40.209Z,78.00
2018-12-13T09:05:02.957Z,77.80
2018-12-13T09:07:25.686Z,77.90
2018-12-13T09:09:54.640Z,77.80
2018-12-13T09:12:17.300Z,77.80
2018-12-13T09:14:39.962Z,77.00
2018-12-13T10:00:18.848Z,78.60
2018-12-13T10:02:42.313Z,79.70
2018-12-13T10:05:05.170Z,79.50
2018-12-13T10:07:48.607Z,80.20
2018-12-13T10:10:11.388Z,80.60
2018-12-13T10:12:59.683Z,80.90
2018-12-13T11:01:43.629Z,87.60
2018-12-13T11:04:06.243Z,87.60
2018-12-13T11:06:28.844Z,87.30
2018-12-13T11:08:51.513Z,87.50
2018-12-13T11:11:14.150Z,88.80
2018-12-13T11:13:37.048Z,87.90
2018-12-13T12:02:36.060Z,85.10
2018-12-13T12:04:58.821Z,84.70
2018-12-13T12:07:21.485Z,84.90
2018-12-13T12:09:45.548Z,84.70
2018-12-13T12:12:08.265Z,85.00
2018-12-13T12:14:30.957Z,84.10
2018-12-13T13:00:19.557Z,81.10
2018-12-13T15:02:10.204Z,80.70
2018-12-13T15:04:32.840Z,80.20
2018-12-13T15:06:55.525Z,79.60
2018-12-13T15:09:18.200Z,79.60
2018-12-13T15:11:40.799Z,78.70
2018-12-13T15:14:04.398Z,78.30
2018-12-13T16:02:38.308Z,77.20
2018-12-13T16:05:01.100Z,76.50
2018-12-13T16:07:23.757Z,76.30
2018-12-13T17:00:19.729Z,76.30
2018-12-13T17:02:43.025Z,76.10
2018-12-13T18:05:44.081Z,77.40
2018-12-13T18:08:06.721Z,77.00
2018-12-13T18:10:52.703Z,77.10
2018-12-13T18:13:16.413Z,77.40
2018-12-13T19:02:21.389Z,76.60
2018-12-13T19:04:44.019Z,76.80
2018-12-13T20:02:39.453Z,76.50
2018-12-13T20:05:02.162Z,76.60
2018-12-13T20:07:24.985Z,76.50
2018-12-13T20:10:07.762Z,76.40
2018-12-13T20:12:30.515Z,76.70
2018-12-13T20:14:53.887Z,77.00
2018-12-13T21:00:44.465Z,77.40
2018-12-13T21:03:07.104Z,77.60
2018-12-13T21:05:29.733Z,77.60
2018-12-13T21:08:08.917Z,78.00
2018-12-13T21:10:31.524Z,77.90
2018-12-13T21:12:54.108Z,78.20
